Time;durP1;ratioP1;P1;durP2;ratioP2;P2;SDS_P1;SDS_P2;PMS_P1;PMS_P2;Temp;Humidity;BMP_temperature;BMP_pressure;BME280_temperature;BME280_humidity;BME280_pressure;Samples;Min_cycle;Max_cycle;Signal;HPM_P1;HPM_P2
2022/09/03 00:02:14;;;;;;;;;;;18.80;99.90;;;;;;5033349;28;19917;-91
2022/09/03 00:05:05;;;;;;;;;;;18.80;99.90;;;;;;5030734;28;19940;-91
2022/09/03 00:07:36;;;;;;;;;;;18.80;99.90;;;;;;5035345;28;20585;-91
2022/09/03 00:10:04;;;;;;;;;;;18.90;99.90;;;;;;5035691;28;19967;-90
2022/09/03 00:12:32;;;;;;;;;;;19.00;99.90;;;;;;5016927;28;19909;-90
2022/09/03 00:15:31;;;;;;;;;;;19.00;99.90;;;;;;5030455;28;19917;-91
2022/09/03 00:17:59;;;;;;;;;;;19.10;99.90;;;;;;4962305;28;19961;-91
2022/09/03 00:20:33;;;;;;;;;;;19.10;99.90;;;;;;4951241;28;19918;-90
2022/09/03 00:23:00;;;;;;;;;;;19.20;99.90;;;;;;4953681;28;19923;-90
2022/09/03 00:25:29;;;;;;;;;;;19.00;99.90;;;;;;4967142;28;19926;-90
2022/09/03 00:27:56;;;;;;;;;;;18.80;99.90;;;;;;4964082;28;19934;-90
2022/09/03 00:30:26;;;;;;;;;;;18.80;99.90;;;;;;4972177;28;19921;-91
2022/09/03 00:32:55;;;;;;;;;;;18.90;99.90;;;;;;4978785;28;19929;-90
2022/09/03 00:35:27;;;;;;;;;;;18.90;99.90;;;;;;4976119;28;19929;-92
2022/09/03 00:37:53;;;;;;;;;;;18.90;99.90;;;;;;4986386;28;19917;-91
2022/09/03 00:40:31;;;;;;;;;;;18.80;99.90;;;;;;4972745;28;19918;-91
2022/09/03 00:43:15;;;;;;;;;;;18.70;99.90;;;;;;4981350;28;19924;-92
2022/09/03 00:46:07;;;;;;;;;;;18.60;99.90;;;;;;4958350;28;19922;-91
2022/09/03 00:48:40;;;;;;;;;;;18.50;99.90;;;;;;4963067;28;19918;-91
2022/09/03 00:51:28;;;;;;;;;;;18.40;99.90;;;;;;4962427;28;20494;-91
2022/09/03 00:54:05;;;;;;;;;;;18.30;99.90;;;;;;4958764;28;19949;-92
2022/09/03 00:56:38;;;;;;;;;;;18.20;99.90;;;;;;4994112;28;20128;-91
2022/09/03 00:59:14;;;;;;;;;;;18.10;99.90;;;;;;4987379;28;19936;-90
2022/09/03 01:01:47;;;;;;;;;;;18.10;99.90;;;;;;4987186;28;19959;-90
2022/09/03 01:04:24;;;;;;;;;;;18.00;99.90;;;;;;4970484;28;20015;-91
2022/09/03 01:06:52;;;;;;;;;;;17.90;99.90;;;;;;4970467;28;19933;-92
2022/09/03 01:09:21;;;;;;;;;;;17.90;99.90;;;;;;4986982;28;19917;-90
2022/09/03 01:11:53;;;;;;;;;;;17.90;99.90;;;;;;4986130;28;19921;-91
2022/09/03 01:14:24;;;;;;;;;;;18.00;99.90;;;;;;4986341;28;19914;-90
2022/09/03 01:16:57;;;;;;;;;;;18.00;99.90;;;;;;4984572;28;19914;-90
2022/09/03 01:19:30;;;;;;;;;;;17.90;99.90;;;;;;4984779;28;19925;-91
2022/09/03 01:22:04;;;;;;;;;;;18.00;99.90;;;;;;4985369;28;20186;-91
2022/09/03 01:24:48;;;;;;;;;;;18.00;99.90;;;;;;4977372;28;19917;-92
2022/09/03 01:27:26;;;;;;;;;;;17.90;99.90;;;;;;4982597;28;19918;-91
2022/09/03 01:29:52;;;;;;;;;;;17.90;99.90;;;;;;4984150;28;19918;-91
2022/09/03 01:32:18;;;;;;;;;;;17.80;99.90;;;;;;5035941;28;20407;-92
2022/09/03 01:34:50;;;;;;;;;;;17.80;99.90;;;;;;5043783;28;19917;-91
2022/09/03 01:37:27;;;;;;;;;;;17.90;99.90;;;;;;5034944;28;19966;-91
2022/09/03 01:40:02;;;;;;;;;;;18.10;99.90;;;;;;5016261;28;19968;-91
2022/09/03 01:42:47;;;;;;;;;;;18.10;99.90;;;;;;5039463;28;19964;-91
2022/09/03 01:45:17;;;;;;;;;;;18.20;99.90;;;;;;5046334;28;19928;-90
2022/09/03 01:48:01;;;;;;;;;;;18.30;99.90;;;;;;5046074;28;19913;-92
2022/09/03 01:50:46;;;;;;;;;;;18.40;99.90;;;;;;5042722;28;19917;-92
2022/09/03 01:53:24;;;;;;;;;;;18.40;99.90;;;;;;5029323;28;21536;-91
2022/09/03 01:55:55;;;;;;;;;;;18.40;99.90;;;;;;5029446;28;19924;-90
2022/09/03 01:58:34;;;;;;;;;;;18.50;99.90;;;;;;5047616;28;20385;-92
2022/09/03 02:01:07;;;;;;;;;;;18.40;99.90;;;;;;5044462;28;19919;-91
2022/09/03 02:03:38;;;;;;;;;;;18.20;99.90;;;;;;5030077;28;19991;-90
2022/09/03 02:06:06;;;;;;;;;;;17.90;99.90;;;;;;5041392;28;20019;-91
2022/09/03 02:08:32;;;;;;;;;;;17.80;99.90;;;;;;5033784;28;20692;-90
2022/09/03 02:11:01;;;;;;;;;;;17.70;99.90;;;;;;5048631;28;20008;-91
2022/09/03 02:13:30;;;;;;;;;;;17.70;99.90;;;;;;5037733;28;19917;-89
2022/09/03 02:15:58;;;;;;;;;;;17.80;99.90;;;;;;5044659;28;19913;-92
2022/09/03 02:18:25;;;;;;;;;;;17.70;99.90;;;;;;5046466;28;19916;-91
2022/09/03 02:20:54;;;;;;;;;;;17.70;99.90;;;;;;5035936;28;19987;-91
2022/09/03 02:23:20;;;;;;;;;;;17.70;99.90;;;;;;5049026;28;20454;-91
2022/09/03 02:25:49;;;;;;;;;;;17.60;99.90;;;;;;5040119;28;20023;-90
2022/09/03 02:28:14;;;;;;;;;;;17.70;99.90;;;;;;5047864;28;19913;-92
2022/09/03 02:30:40;;;;;;;;;;;17.70;99.90;;;;;;5033672;28;19983;-90
2022/09/03 02:33:06;;;;;;;;;;;17.70;99.90;;;;;;5044574;28;19928;-91
2022/09/03 02:35:32;;;;;;;;;;;17.70;99.90;;;;;;5014368;28;19917;-91
2022/09/03 02:38:08;;;;;;;;;;;17.60;99.90;;;;;;5031977;28;20017;-91
2022/09/03 02:40:34;;;;;;;;;;;17.50;99.90;;;;;;5042937;28;19913;-90
2022/09/03 02:43:00;;;;;;;;;;;17.50;99.90;;;;;;5047825;28;19958;-89
2022/09/03 02:45:27;;;;;;;;;;;17.50;99.90;;;;;;5046059;28;19970;-89
2022/09/03 02:47:54;;;;;;;;;;;17.50;99.90;;;;;;5035944;28;19924;-90
2022/09/03 02:50:20;;;;;;;;;;;17.40;99.90;;;;;;5012492;28;19978;-90
2022/09/03 02:52:46;;;;;;;;;;;17.40;99.90;;;;;;5040689;28;19921;-90
2022/09/03 02:55:11;;;;;;;;;;;17.40;99.90;;;;;;5030800;28;20393;-89
2022/09/03 02:57:37;;;;;;;;;;;17.50;99.90;;;;;;5030276;28;19960;-89
2022/09/03 03:00:02;;;;;;;;;;;17.60;99.90;;;;;;5041364;28;19932;-89
2022/09/03 03:02:28;;;;;;;;;;;17.50;99.90;;;;;;5040124;28;19983;-90
2022/09/03 03:04:54;;;;;;;;;;;17.60;99.90;;;;;;5043337;28;19921;-89
2022/09/03 03:07:19;;;;;;;;;;;17.50;99.90;;;;;;5047243;28;19956;-90
2022/09/03 03:09:45;;;;;;;;;;;17.50;99.90;;;;;;5034424;28;19963;-89
2022/09/03 03:12:11;;;;;;;;;;;17.50;99.90;;;;;;5021243;28;19995;-89
2022/09/03 03:14:36;;;;;;;;;;;17.60;99.90;;;;;;5047756;28;19923;-88
2022/09/03 03:17:02;;;;;;;;;;;17.60;99.90;;;;;;5046942;28;19963;-87
2022/09/03 03:19:27;;;;;;;;;;;17.70;99.90;;;;;;5059613;28;19917;-91
2022/09/03 03:21:53;;;;;;;;;;;17.70;99.90;;;;;;5035452;28;19940;-90
2022/09/03 03:24:18;;;;;;;;;;;17.70;99.90;;;;;;5032109;28;19917;-90
2022/09/03 03:26:44;;;;;;;;;;;17.90;99.90;;;;;;5022439;28;20386;-91
2022/09/03 03:29:13;;;;;;;;;;;18.00;99.90;;;;;;5039358;28;19924;-89
2022/09/03 03:31:38;;;;;;;;;;;18.00;99.90;;;;;;5040040;28;19928;-91
2022/09/03 03:34:04;;;;;;;;;;;18.00;99.90;;;;;;5021067;28;20285;-90
2022/09/03 03:36:31;;;;;;;;;;;18.00;99.90;;;;;;5048290;28;19917;-89
2022/09/03 03:38:57;;;;;;;;;;;18.00;99.90;;;;;;5044902;28;19917;-91
2022/09/03 03:41:24;;;;;;;;;;;18.00;99.90;;;;;;5041601;28;19917;-89
2022/09/03 03:43:53;;;;;;;;;;;17.90;99.90;;;;;;5025216;28;19917;-91
2022/09/03 03:46:19;;;;;;;;;;;17.80;99.90;;;;;;5043066;28;20019;-91
2022/09/03 03:48:46;;;;;;;;;;;17.90;99.90;;;;;;5023229;28;20468;-89
2022/09/03 03:51:12;;;;;;;;;;;17.90;99.90;;;;;;5031500;28;20390;-91
2022/09/03 03:53:37;;;;;;;;;;;17.90;99.90;;;;;;5043210;28;19917;-91
2022/09/03 03:56:05;;;;;;;;;;;17.90;99.90;;;;;;5049326;28;19924;-90
2022/09/03 03:58:31;;;;;;;;;;;17.90;99.90;;;;;;5043913;28;19924;-90
2022/09/03 04:01:04;;;;;;;;;;;17.80;99.90;;;;;;5035731;28;19913;-90
2022/09/03 04:03:29;;;;;;;;;;;17.90;99.90;;;;;;5034196;28;19924;-91
2022/09/03 04:05:56;;;;;;;;;;;17.80;99.90;;;;;;5037815;28;20748;-91
2022/09/03 04:08:21;;;;;;;;;;;17.80;99.90;;;;;;5031019;28;19956;-89
2022/09/03 04:10:47;;;;;;;;;;;17.90;99.90;;;;;;5039804;28;19944;-89
2022/09/03 04:13:13;;;;;;;;;;;17.90;99.90;;;;;;5049116;28;19916;-91
2022/09/03 04:15:38;;;;;;;;;;;17.90;99.90;;;;;;5025022;28;19913;-89
2022/09/03 04:18:04;;;;;;;;;;;18.00;99.90;;;;;;5035559;28;20677;-91
2022/09/03 04:20:29;;;;;;;;;;;17.90;99.90;;;;;;5031960;28;21283;-89
2022/09/03 04:22:59;;;;;;;;;;;18.00;99.90;;;;;;5037401;28;19982;-90
2022/09/03 04:25:25;;;;;;;;;;;18.00;99.90;;;;;;5048224;28;19925;-91
2022/09/03 04:27:51;;;;;;;;;;;18.00;99.90;;;;;;5042502;28;20679;-91
2022/09/03 04:30:17;;;;;;;;;;;18.10;99.90;;;;;;5028374;28;19912;-90
2022/09/03 04:32:55;;;;;;;;;;;18.20;99.90;;;;;;5037038;28;19920;-91
2022/09/03 04:35:21;;;;;;;;;;;18.20;99.90;;;;;;5025899;28;19936;-91
2022/09/03 04:37:46;;;;;;;;;;;18.20;99.90;;;;;;5046675;28;19917;-91
2022/09/03 04:40:12;;;;;;;;;;;18.20;99.90;;;;;;5027245;28;20046;-91
2022/09/03 04:42:38;;;;;;;;;;;18.30;99.90;;;;;;5019829;28;19956;-89
2022/09/03 04:45:03;;;;;;;;;;;18.20;99.90;;;;;;5041124;28;20424;-90
2022/09/03 04:47:29;;;;;;;;;;;18.20;99.90;;;;;;5029138;28;19913;-90
2022/09/03 04:49:54;;;;;;;;;;;18.20;99.90;;;;;;5036471;28;19956;-90
2022/09/03 04:52:20;;;;;;;;;;;18.20;99.90;;;;;;5039950;28;20051;-90
2022/09/03 04:54:46;;;;;;;;;;;18.20;99.90;;;;;;5021876;28;19924;-90
2022/09/03 04:57:12;;;;;;;;;;;18.30;99.90;;;;;;5035912;28;19959;-90
2022/09/03 04:59:38;;;;;;;;;;;18.20;99.90;;;;;;5032038;28;20013;-91
2022/09/03 05:02:03;;;;;;;;;;;18.30;99.90;;;;;;5040302;28;20647;-89
2022/09/03 05:04:29;;;;;;;;;;;18.30;99.90;;;;;;5040001;28;19960;-90
2022/09/03 05:06:54;;;;;;;;;;;18.30;99.90;;;;;;5044417;28;20018;-89
2022/09/03 05:09:20;;;;;;;;;;;18.20;99.90;;;;;;5010869;28;19921;-87
2022/09/03 05:11:45;;;;;;;;;;;18.20;99.90;;;;;;5044125;28;19921;-90
2022/09/03 05:14:11;;;;;;;;;;;18.20;99.90;;;;;;5031468;28;19917;-90
2022/09/03 05:16:37;;;;;;;;;;;18.20;99.90;;;;;;5047689;28;19955;-92
2022/09/03 05:19:04;;;;;;;;;;;18.30;99.90;;;;;;5048117;28;19923;-89
2022/09/03 05:21:30;;;;;;;;;;;18.30;99.90;;;;;;5031735;28;19917;-88
2022/09/03 05:23:56;;;;;;;;;;;18.20;99.90;;;;;;5040843;28;19913;-89
2022/09/03 05:26:23;;;;;;;;;;;18.10;99.90;;;;;;5034204;28;19932;-90
2022/09/03 05:28:52;;;;;;;;;;;18.20;99.90;;;;;;5018924;28;19917;-90
2022/09/03 05:31:18;;;;;;;;;;;18.20;99.90;;;;;;5044092;28;19917;-91
2022/09/03 05:33:45;;;;;;;;;;;18.20;99.90;;;;;;5033231;28;19913;-90
2022/09/03 05:36:12;;;;;;;;;;;18.20;99.90;;;;;;5043166;28;20004;-91
2022/09/03 05:38:38;;;;;;;;;;;18.20;99.90;;;;;;5047396;28;19916;-91
2022/09/03 05:41:04;;;;;;;;;;;18.30;99.90;;;;;;5040480;28;20499;-93
2022/09/03 05:43:30;;;;;;;;;;;18.30;99.90;;;;;;5018080;28;19915;-91
2022/09/03 05:45:57;;;;;;;;;;;18.20;99.90;;;;;;5039755;28;20027;-92
2022/09/03 05:48:22;;;;;;;;;;;18.30;99.90;;;;;;5048411;28;20011;-92
2022/09/03 05:50:48;;;;;;;;;;;18.30;99.90;;;;;;5036296;28;20417;-84
2022/09/03 05:53:14;;;;;;;;;;;18.40;99.90;;;;;;5032124;28;19924;-82
2022/09/03 05:55:39;;;;;;;;;;;18.60;99.90;;;;;;5037223;28;20134;-85
2022/09/03 05:58:05;;;;;;;;;;;18.60;99.90;;;;;;5031136;28;19944;-85
2022/09/03 06:00:31;;;;;;;;;;;18.80;99.90;;;;;;5036429;28;20681;-84
2022/09/03 06:02:57;;;;;;;;;;;18.60;99.90;;;;;;5033958;28;19917;-85
2022/09/03 06:05:23;;;;;;;;;;;18.70;99.90;;;;;;5026775;28;19925;-85
2022/09/03 06:07:48;;;;;;;;;;;18.80;99.90;;;;;;5041473;28;19917;-84
2022/09/03 06:10:15;;;;;;;;;;;18.90;99.90;;;;;;5029034;28;20399;-84
2022/09/03 06:12:41;;;;;;;;;;;18.90;99.90;;;;;;5037349;28;19916;-84
2022/09/03 06:15:07;;;;;;;;;;;18.90;99.90;;;;;;5011115;28;20046;-84
2022/09/03 06:17:32;;;;;;;;;;;18.90;99.90;;;;;;5033430;28;20015;-83
2022/09/03 06:19:58;;;;;;;;;;;19.00;99.90;;;;;;5041186;28;19956;-84
2022/09/03 06:22:27;;;;;;;;;;;18.90;99.90;;;;;;5023508;28;20351;-84
2022/09/03 06:24:53;;;;;;;;;;;18.90;99.90;;;;;;5023412;28;20020;-84
2022/09/03 06:27:20;;;;;;;;;;;19.10;99.90;;;;;;5024136;28;20417;-84
2022/09/03 06:29:45;;;;;;;;;;;19.10;99.90;;;;;;5032227;28;19974;-85
2022/09/03 06:32:11;;;;;;;;;;;19.10;99.90;;;;;;5024021;28;19956;-85
2022/09/03 06:34:36;;;;;;;;;;;19.20;99.90;;;;;;5031412;28;19913;-85
2022/09/03 06:37:02;;;;;;;;;;;19.20;99.90;;;;;;5024476;28;19920;-86
2022/09/03 06:39:27;;;;;;;;;;;19.20;99.90;;;;;;5033232;28;19912;-85
2022/09/03 06:41:53;;;;;;;;;;;19.20;99.90;;;;;;5030138;28;20002;-87
2022/09/03 06:44:19;;;;;;;;;;;19.40;99.90;;;;;;5037145;28;19990;-87
2022/09/03 06:46:47;;;;;;;;;;;19.30;99.90;;;;;;5025286;28;19962;-87
2022/09/03 06:49:13;;;;;;;;;;;19.30;99.90;;;;;;5023096;28;19913;-87
2022/09/03 06:51:39;;;;;;;;;;;19.50;99.90;;;;;;5024567;28;19974;-87
2022/09/03 06:54:05;;;;;;;;;;;19.80;99.90;;;;;;5007966;28;19913;-87
2022/09/03 06:56:32;;;;;;;;;;;20.90;99.90;;;;;;5025469;28;19925;-88
2022/09/03 06:58:59;;;;;;;;;;;20.70;99.90;;;;;;5028896;28;19967;-88
2022/09/03 07:01:25;;;;;;;;;;;20.20;99.90;;;;;;5032852;28;19923;-88
2022/09/03 07:03:54;;;;;;;;;;;20.20;99.90;;;;;;5024971;28;19917;-88
2022/09/03 07:06:20;;;;;;;;;;;20.30;99.90;;;;;;5029651;28;20773;-89
2022/09/03 07:08:46;;;;;;;;;;;20.30;99.90;;;;;;5038873;28;19917;-88
2022/09/03 07:11:13;;;;;;;;;;;20.50;99.90;;;;;;5028058;28;20660;-88
2022/09/03 07:13:40;;;;;;;;;;;20.40;99.90;;;;;;5039847;28;20007;-90
2022/09/03 07:16:08;;;;;;;;;;;20.50;99.90;;;;;;5049649;28;20326;-88
2022/09/03 07:18:33;;;;;;;;;;;20.50;99.90;;;;;;5040979;28;20019;-88
2022/09/03 07:21:00;;;;;;;;;;;20.50;99.90;;;;;;5025246;28;20008;-90
2022/09/03 07:23:26;;;;;;;;;;;20.40;99.90;;;;;;5046834;28;19917;-88
2022/09/03 07:25:53;;;;;;;;;;;20.30;99.90;;;;;;5046413;28;19925;-90
2022/09/03 07:28:18;;;;;;;;;;;20.30;99.90;;;;;;5043569;28;19985;-89
2022/09/03 07:30:44;;;;;;;;;;;20.40;99.90;;;;;;5020459;28;20040;-91
2022/09/03 07:33:09;;;;;;;;;;;20.40;99.90;;;;;;5025382;28;19917;-88
2022/09/03 07:35:35;;;;;;;;;;;20.40;99.90;;;;;;5039831;28;19948;-90
2022/09/03 07:38:01;;;;;;;;;;;20.40;99.90;;;;;;5024266;28;20511;-88
2022/09/03 07:40:28;;;;;;;;;;;20.90;99.90;;;;;;5034569;28;19917;-89
2022/09/03 07:43:00;;;;;;;;;;;21.00;99.90;;;;;;5029796;28;19952;-87
2022/09/03 07:45:28;;;;;;;;;;;20.50;99.90;;;;;;5030544;28;19925;-88
2022/09/03 07:47:53;;;;;;;;;;;21.00;99.90;;;;;;5008504;28;19967;-89
2022/09/03 07:50:19;;;;;;;;;;;20.70;99.90;;;;;;5008174;28;19915;-88
2022/09/03 07:52:46;;;;;;;;;;;20.70;99.90;;;;;;5040618;28;20373;-88
2022/09/03 07:55:11;;;;;;;;;;;20.80;99.90;;;;;;5043059;28;19913;-88
2022/09/03 07:57:37;;;;;;;;;;;20.70;99.90;;;;;;5044418;28;20274;-88
2022/09/03 08:00:02;;;;;;;;;;;20.80;99.90;;;;;;5045997;28;20341;-89
2022/09/03 08:02:28;;;;;;;;;;;20.60;99.90;;;;;;5043720;28;19916;-89
2022/09/03 08:04:53;;;;;;;;;;;20.70;99.90;;;;;;5026754;28;19917;-88
2022/09/03 08:07:19;;;;;;;;;;;21.00;99.90;;;;;;5026249;28;20393;-88
2022/09/03 08:09:44;;;;;;;;;;;20.80;99.90;;;;;;5026162;28;19915;-88
2022/09/03 08:12:10;;;;;;;;;;;22.20;99.90;;;;;;5042724;28;19923;-89
2022/09/03 08:14:35;;;;;;;;;;;21.80;99.90;;;;;;5045455;28;19943;-88
2022/09/03 08:17:01;;;;;;;;;;;21.80;99.90;;;;;;5025318;28;20449;-89
2022/09/03 08:19:26;;;;;;;;;;;21.50;99.90;;;;;;5042247;28;19916;-89
2022/09/03 08:21:52;;;;;;;;;;;25.10;99.90;;;;;;5045196;28;19917;-89
2022/09/03 08:24:20;;;;;;;;;;;27.60;99.90;;;;;;5041725;28;19973;-89
2022/09/03 08:26:46;;;;;;;;;;;27.30;99.90;;;;;;5045712;28;19946;-88
2022/09/03 08:29:12;;;;;;;;;;;26.50;99.90;;;;;;5042296;28;19912;-89
2022/09/03 08:31:37;;;;;;;;;;;27.90;99.90;;;;;;5041033;28;19978;-89
2022/09/03 08:34:05;;;;;;;;;;;25.90;99.50;;;;;;5043425;28;19916;-89
2022/09/03 08:36:32;;;;;;;;;;;27.70;99.90;;;;;;5046208;28;19913;-88
2022/09/03 08:39:02;;;;;;;;;;;27.00;99.50;;;;;;5045683;28;19928;-89
2022/09/03 08:41:47;;;;;;;;;;;23.80;99.90;;;;;;5045295;28;19912;-88
2022/09/03 08:44:15;;;;;;;;;;;23.20;99.90;;;;;;5044501;28;20676;-87
2022/09/03 08:46:50;;;;;;;;;;;23.10;99.90;;;;;;5021157;28;19924;-88
2022/09/03 08:49:20;;;;;;;;;;;22.10;99.90;;;;;;5027733;28;19944;-88
2022/09/03 08:51:46;;;;;;;;;;;22.10;99.90;;;;;;5040277;28;19917;-88
2022/09/03 08:54:12;;;;;;;;;;;22.00;99.90;;;;;;5039814;28;20767;-89
2022/09/03 08:56:40;;;;;;;;;;;22.20;99.90;;;;;;5034360;28;20021;-88
2022/09/03 08:59:06;;;;;;;;;;;22.50;99.90;;;;;;5042769;28;19923;-88
2022/09/03 09:01:35;;;;;;;;;;;22.20;99.90;;;;;;5045767;28;19924;-88
2022/09/03 09:04:06;;;;;;;;;;;22.40;99.90;;;;;;5025899;28;19913;-85
2022/09/03 09:06:35;;;;;;;;;;;22.10;99.90;;;;;;5043911;28;19975;-86
2022/09/03 09:09:10;;;;;;;;;;;22.20;99.90;;;;;;5026014;28;20052;-86
2022/09/03 09:11:36;;;;;;;;;;;22.30;99.90;;;;;;5043991;28;19958;-87
2022/09/03 09:14:11;;;;;;;;;;;22.10;99.90;;;;;;5025249;28;19916;-86
2022/09/03 09:16:55;;;;;;;;;;;22.10;99.90;;;;;;5043570;28;19917;-87
2022/09/03 09:19:21;;;;;;;;;;;22.40;99.90;;;;;;5043431;28;20420;-87
2022/09/03 09:21:46;;;;;;;;;;;23.30;99.90;;;;;;5025916;28;20004;-87
2022/09/03 09:24:20;;;;;;;;;;;27.90;99.90;;;;;;5044216;28;19916;-88
2022/09/03 09:26:46;;;;;;;;;;;29.20;97.80;;;;;;5044403;28;19960;-87
2022/09/03 09:29:13;;;;;;;;;;;28.90;96.50;;;;;;5043782;28;19931;-87
2022/09/03 09:31:39;;;;;;;;;;;29.30;94.90;;;;;;5043865;28;19917;-87
2022/09/03 09:34:06;;;;;;;;;;;30.80;92.40;;;;;;5043439;28;20336;-86
2022/09/03 09:36:36;;;;;;;;;;;29.20;90.20;;;;;;5043448;28;20340;-87
2022/09/03 09:39:09;;;;;;;;;;;27.60;93.00;;;;;;5043603;28;20419;-87
2022/09/03 09:41:34;;;;;;;;;;;24.90;98.40;;;;;;5025802;28;19919;-87
2022/09/03 09:44:01;;;;;;;;;;;24.20;99.90;;;;;;5043788;28;19995;-87
2022/09/03 09:46:31;;;;;;;;;;;24.10;99.90;;;;;;5043657;28;19920;-87
2022/09/03 09:48:57;;;;;;;;;;;25.00;99.90;;;;;;5043546;28;19920;-86
2022/09/03 09:51:23;;;;;;;;;;;29.00;96.00;;;;;;5043697;28;20263;-87
2022/09/03 09:53:59;;;;;;;;;;;26.70;96.20;;;;;;5025442;28;19920;-87
2022/09/03 09:56:25;;;;;;;;;;;26.00;98.20;;;;;;5043371;28;20633;-87
2022/09/03 09:59:04;;;;;;;;;;;29.40;94.30;;;;;;5043589;28;19913;-87
2022/09/03 10:01:30;;;;;;;;;;;30.10;88.00;;;;;;5043769;28;19970;-87
2022/09/03 10:03:57;;;;;;;;;;;28.20;90.70;;;;;;5025191;28;19938;-87
2022/09/03 10:09:16;;;;;;;;;;;25.20;97.20;;;;;;5044010;28;20826;-87
2022/09/03 10:11:49;;;;;;;;;;;25.10;97.90;;;;;;5043588;28;19919;-87
2022/09/03 10:14:21;;;;;;;;;;;25.40;96.60;;;;;;5025566;28;20274;-86
2022/09/03 10:16:49;;;;;;;;;;;24.80;97.90;;;;;;5042739;28;20290;-86
2022/09/03 10:19:17;;;;;;;;;;;24.80;98.50;;;;;;5023915;28;19917;-87
2022/09/03 10:21:46;;;;;;;;;;;25.10;97.90;;;;;;5034894;28;19991;-85
2022/09/03 10:24:17;;;;;;;;;;;25.40;98.70;;;;;;5029135;28;20564;-90
2022/09/03 10:26:46;;;;;;;;;;;24.70;98.90;;;;;;5041466;28;19921;-91
2022/09/03 10:29:15;;;;;;;;;;;24.10;99.20;;;;;;5043827;28;19959;-87
2022/09/03 10:31:47;;;;;;;;;;;24.00;99.90;;;;;;5043613;28;20558;-87
2022/09/03 10:34:35;;;;;;;;;;;23.90;99.90;;;;;;5046299;28;19979;-86
2022/09/03 10:37:13;;;;;;;;;;;23.80;99.90;;;;;;5047316;28;20479;-86
2022/09/03 10:39:44;;;;;;;;;;;24.40;99.90;;;;;;5038749;28;19917;-85
2022/09/03 10:42:10;;;;;;;;;;;25.10;98.70;;;;;;5009057;28;19993;-87
2022/09/03 10:44:52;;;;;;;;;;;25.10;98.30;;;;;;5041365;28;19964;-89
2022/09/03 10:47:34;;;;;;;;;;;24.70;98.50;;;;;;5044623;28;21383;-86
2022/09/03 10:50:16;;;;;;;;;;;24.70;98.40;;;;;;5039479;28;19917;-85
2022/09/03 10:53:00;;;;;;;;;;;25.30;96.00;;;;;;5039119;28;19916;-86
2022/09/03 10:55:41;;;;;;;;;;;24.90;95.30;;;;;;5042904;28;19917;-85
2022/09/03 10:58:06;;;;;;;;;;;25.00;96.80;;;;;;5040546;28;19924;-85
2022/09/03 11:00:35;;;;;;;;;;;25.40;96.50;;;;;;5045566;28;19916;-84
2022/09/03 11:03:01;;;;;;;;;;;24.90;96.50;;;;;;5030327;28;20042;-84
2022/09/03 11:05:28;;;;;;;;;;;25.60;97.50;;;;;;5028585;28;19933;-85
2022/09/03 11:08:11;;;;;;;;;;;26.10;95.30;;;;;;5027561;28;20397;-84
2022/09/03 11:10:42;;;;;;;;;;;26.20;95.70;;;;;;5010332;28;20613;-85
2022/09/03 11:13:12;;;;;;;;;;;26.00;94.40;;;;;;5029376;28;19917;-83
2022/09/03 11:15:43;;;;;;;;;;;25.90;94.40;;;;;;5041612;28;20373;-85
2022/09/03 11:18:17;;;;;;;;;;;25.90;94.50;;;;;;5045054;28;20007;-84
2022/09/03 11:20:43;;;;;;;;;;;25.50;92.90;;;;;;5044052;28;19921;-83
2022/09/03 11:23:12;;;;;;;;;;;25.20;94.00;;;;;;5025875;28;19928;-85
2022/09/03 11:25:51;;;;;;;;;;;25.10;94.30;;;;;;5025387;28;19921;-84
2022/09/03 11:28:27;;;;;;;;;;;25.40;95.70;;;;;;5029714;28;19928;-84
2022/09/03 11:30:56;;;;;;;;;;;25.60;94.30;;;;;;5031019;28;19927;-85
2022/09/03 11:33:23;;;;;;;;;;;25.30;93.40;;;;;;5028590;28;19991;-83
2022/09/03 11:35:55;;;;;;;;;;;24.70;94.00;;;;;;5028513;28;20593;-84
2022/09/03 11:38:26;;;;;;;;;;;24.80;95.00;;;;;;5026660;28;19959;-83
2022/09/03 11:40:57;;;;;;;;;;;24.80;94.00;;;;;;5029151;28;20767;-84
2022/09/03 11:43:22;;;;;;;;;;;25.50;93.50;;;;;;5025776;28;20008;-84
2022/09/03 11:45:49;;;;;;;;;;;25.40;90.80;;;;;;5035305;28;20316;-84
2022/09/03 11:48:30;;;;;;;;;;;25.40;90.80;;;;;;5042853;28;19924;-85
2022/09/03 11:50:56;;;;;;;;;;;25.60;90.10;;;;;;5025772;28;19917;-84
2022/09/03 11:53:27;;;;;;;;;;;25.50;88.00;;;;;;5034870;28;20419;-85
2022/09/03 11:55:53;;;;;;;;;;;25.40;89.80;;;;;;5039587;28;19932;-85
2022/09/03 11:58:27;;;;;;;;;;;25.70;90.60;;;;;;5044530;28;20031;-85
2022/09/03 12:00:54;;;;;;;;;;;25.50;89.70;;;;;;5025750;28;20070;-85
2022/09/03 12:03:38;;;;;;;;;;;25.80;89.90;;;;;;5029249;28;20000;-84
2022/09/03 12:06:09;;;;;;;;;;;26.10;86.60;;;;;;5025146;28;19945;-87
2022/09/03 12:08:54;;;;;;;;;;;26.30;88.30;;;;;;5043940;28;20024;-85
2022/09/03 12:11:38;;;;;;;;;;;26.50;84.70;;;;;;5044292;28;19920;-84
2022/09/03 12:14:23;;;;;;;;;;;26.80;85.10;;;;;;5043772;28;19917;-85
2022/09/03 12:16:57;;;;;;;;;;;26.70;83.20;;;;;;5034733;28;20297;-85
2022/09/03 12:19:41;;;;;;;;;;;26.30;86.50;;;;;;5037766;28;19925;-85
2022/09/03 12:22:13;;;;;;;;;;;26.50;89.60;;;;;;5042201;28;19971;-85
2022/09/03 12:24:42;;;;;;;;;;;26.50;89.30;;;;;;5044487;28;20004;-85
2022/09/03 12:27:11;;;;;;;;;;;26.20;84.60;;;;;;5043094;28;20023;-84
2022/09/03 12:29:37;;;;;;;;;;;25.90;87.60;;;;;;5039714;28;19929;-83
2022/09/03 12:32:07;;;;;;;;;;;25.90;87.70;;;;;;5029879;28;20813;-84
2022/09/03 12:34:33;;;;;;;;;;;26.10;90.30;;;;;;5008626;28;19916;-84
2022/09/03 12:36:59;;;;;;;;;;;26.30;88.20;;;;;;5026056;28;19920;-85
2022/09/03 12:39:25;;;;;;;;;;;26.30;86.80;;;;;;5023741;28;19913;-85
2022/09/03 12:42:04;;;;;;;;;;;26.00;85.20;;;;;;5022870;28;19913;-85
2022/09/03 12:44:36;;;;;;;;;;;25.90;86.60;;;;;;5023414;28;19917;-85
2022/09/03 12:47:01;;;;;;;;;;;25.90;86.60;;;;;;5039919;28;20396;-84
2022/09/03 12:49:32;;;;;;;;;;;25.90;87.80;;;;;;5044457;28;19924;-85
2022/09/03 12:52:04;;;;;;;;;;;26.10;86.90;;;;;;5043381;28;20282;-84
2022/09/03 12:54:29;;;;;;;;;;;26.60;87.40;;;;;;5042220;28;19959;-83
2022/09/03 12:56:56;;;;;;;;;;;26.60;85.00;;;;;;5024380;28;20000;-85
2022/09/03 12:59:23;;;;;;;;;;;26.10;85.40;;;;;;5032403;28;20866;-85
2022/09/03 13:01:53;;;;;;;;;;;25.80;86.20;;;;;;5032204;28;20287;-84
2022/09/03 13:04:25;;;;;;;;;;;25.80;84.60;;;;;;5042839;28;19913;-85
2022/09/03 13:06:55;;;;;;;;;;;25.80;85.70;;;;;;5040612;28;19925;-85
2022/09/03 13:09:22;;;;;;;;;;;25.50;84.30;;;;;;5042009;28;19920;-85
2022/09/03 13:11:50;;;;;;;;;;;25.50;83.90;;;;;;5039504;28;19994;-85
2022/09/03 13:14:17;;;;;;;;;;;25.50;84.10;;;;;;5038271;28;19913;-85
2022/09/03 13:16:42;;;;;;;;;;;25.60;85.30;;;;;;5037607;28;19917;-84
2022/09/03 13:19:17;;;;;;;;;;;25.40;83.20;;;;;;5042859;28;19917;-84
2022/09/03 13:21:46;;;;;;;;;;;25.30;86.10;;;;;;5038074;28;20551;-85
2022/09/03 13:24:24;;;;;;;;;;;25.40;85.20;;;;;;5043397;28;19924;-85
2022/09/03 13:27:09;;;;;;;;;;;25.80;85.80;;;;;;5043429;28;19975;-85
2022/09/03 13:29:42;;;;;;;;;;;26.00;83.00;;;;;;5043687;28;19913;-84
2022/09/03 13:32:16;;;;;;;;;;;26.20;81.60;;;;;;5042643;28;19916;-84
2022/09/03 13:34:51;;;;;;;;;;;26.10;80.50;;;;;;5043379;28;19912;-85
2022/09/03 13:37:24;;;;;;;;;;;26.20;83.10;;;;;;5043461;28;19919;-85
2022/09/03 13:39:58;;;;;;;;;;;26.30;81.10;;;;;;5043074;28;19920;-84
2022/09/03 13:42:34;;;;;;;;;;;26.30;80.80;;;;;;5043396;28;20016;-85
2022/09/03 13:45:06;;;;;;;;;;;26.50;79.40;;;;;;5025119;28;19943;-84
2022/09/03 13:50:38;;;;;;;;;;;27.00;77.00;;;;;;5043562;28;19959;-86
2022/09/03 13:53:08;;;;;;;;;;;26.60;76.40;;;;;;5043037;28;19916;-85
2022/09/03 13:55:43;;;;;;;;;;;26.00;78.20;;;;;;5042720;28;19952;-85
2022/09/03 13:58:08;;;;;;;;;;;26.20;80.20;;;;;;5043024;28;19916;-84
2022/09/03 14:00:34;;;;;;;;;;;26.50;79.80;;;;;;5043311;28;19923;-85
2022/09/03 14:03:02;;;;;;;;;;;26.50;75.80;;;;;;5043797;28;19913;-85
2022/09/03 14:05:37;;;;;;;;;;;26.40;76.70;;;;;;5046732;28;20683;-84
2022/09/03 14:08:08;;;;;;;;;;;26.30;77.40;;;;;;5029279;28;19924;-85
2022/09/03 14:10:34;;;;;;;;;;;26.20;78.50;;;;;;5047515;28;19927;-85
2022/09/03 14:13:23;;;;;;;;;;;26.10;78.50;;;;;;5042535;28;20369;-84
2022/09/03 14:15:55;;;;;;;;;;;26.10;77.20;;;;;;5027230;28;19945;-85
2022/09/03 14:18:38;;;;;;;;;;;25.90;77.70;;;;;;5027240;28;19913;-84
2022/09/03 14:21:12;;;;;;;;;;;25.90;78.90;;;;;;5023906;28;19917;-85
2022/09/03 14:23:54;;;;;;;;;;;26.10;79.30;;;;;;5008960;28;19913;-86
2022/09/03 14:26:30;;;;;;;;;;;26.20;79.10;;;;;;5027755;28;19921;-85
2022/09/03 14:29:00;;;;;;;;;;;26.10;78.10;;;;;;5027240;28;19994;-84
2022/09/03 14:31:34;;;;;;;;;;;25.90;78.30;;;;;;5027606;28;19988;-85
2022/09/03 14:34:10;;;;;;;;;;;25.70;77.80;;;;;;5027018;28;19924;-85
2022/09/03 14:36:43;;;;;;;;;;;25.60;79.90;;;;;;5027761;28;19927;-84